createdAt,value
2023-05-29T00:05:17.918Z,98851.81
2023-05-29T00:15:25.040Z,98847.73
2023-05-29T00:25:32.277Z,98855.66
2023-05-29T00:35:39.744Z,98855.80
2023-05-29T00:45:47.290Z,98855.98
2023-05-29T00:55:55.009Z,98850.67
2023-05-29T01:06:02.882Z,98847.11
2023-05-29T01:16:08.168Z,98834.22
2023-05-29T01:26:37.962Z,98835.48
2023-05-29T01:36:45.541Z,98833.05
2023-05-29T01:46:53.492Z,98830.92
2023-05-29T01:57:01.424Z,98826.91
2023-05-29T02:07:08.555Z,98824.94
2023-05-29T02:17:16.103Z,98817.54
2023-05-29T02:27:23.680Z,98807.46
2023-05-29T02:37:30.375Z,98808.56
2023-05-29T02:47:37.349Z,98805.48
2023-05-29T02:57:44.601Z,98807.80
2023-05-29T03:07:52.271Z,98805.34
2023-05-29T03:17:59.619Z,98796.98
2023-05-29T03:28:07.065Z,98794.64
2023-05-29T03:38:13.983Z,98786.48
2023-05-29T03:48:21.321Z,98784.48
2023-05-29T03:58:28.394Z,98793.04
2023-05-29T04:08:35.790Z,98790.35
2023-05-29T04:18:42.905Z,98797.29
2023-05-29T04:28:50.519Z,98801.84
2023-05-29T04:38:55.323Z,98810.09
2023-05-29T04:49:04.578Z,98815.60
2023-05-29T04:59:11.756Z,98820.05
2023-05-29T05:09:18.762Z,98824.08
2023-05-29T05:19:26.252Z,98835.90
2023-05-29T05:29:33.279Z,98841.85
2023-05-29T05:39:40.742Z,98841.70
2023-05-29T05:49:47.816Z,98848.70
2023-05-29T05:59:55.540Z,98848.67
2023-05-29T06:10:02.771Z,98854.34
2023-05-29T06:20:12.223Z,98855.27
2023-05-29T06:30:19.752Z,98851.89
2023-05-29T06:40:27.372Z,98853.56
2023-05-29T06:50:34.581Z,98856.57
2023-05-29T07:00:41.749Z,98862.36
2023-05-29T07:10:49.471Z,98871.31
2023-05-29T07:20:55.223Z,98875.96
2023-05-29T07:31:02.731Z,98878.96
2023-05-29T07:41:09.791Z,98883.66
2023-05-29T07:51:16.849Z,98892.73
2023-05-29T08:01:24.630Z,98888.26
2023-05-29T08:11:31.303Z,98896.39
2023-05-29T08:21:39.166Z,98899.09
2023-05-29T08:31:47.281Z,98902.77
2023-05-29T08:41:51.895Z,98898.98
2023-05-29T08:52:04.948Z,98901.77
2023-05-29T09:02:12.078Z,98902.90
2023-05-29T09:12:19.721Z,98905.10
2023-05-29T09:22:26.785Z,98906.11
2023-05-29T09:32:36.313Z,98902.67
2023-05-29T09:42:43.755Z,98894.56
2023-05-29T09:52:53.593Z,98893.13
2023-05-29T10:03:01.090Z,98895.23
2023-05-29T10:13:13.295Z,98890.95
2023-05-29T10:23:20.637Z,98888.42
2023-05-29T10:33:28.689Z,98884.75
2023-05-29T10:43:35.221Z,98883.49
2023-05-29T10:53:45.358Z,98876.79
2023-05-29T11:03:53.821Z,98867.45
2023-05-29T11:14:00.473Z,98866.00
2023-05-29T11:24:08.009Z,98860.79
2023-05-29T11:34:14.810Z,98851.15
2023-05-29T11:44:23.252Z,98850.29
2023-05-29T11:54:30.477Z,98851.08
2023-05-29T12:04:36.183Z,98841.70
2023-05-29T12:14:43.162Z,98836.77
2023-05-29T12:24:51.669Z,98826.92
2023-05-29T12:34:58.928Z,98824.31
2023-05-29T12:45:05.461Z,98817.27
2023-05-29T12:55:13.618Z,98807.86
2023-05-29T13:05:24.393Z,98794.37
2023-05-29T13:15:34.400Z,98782.85
2023-05-29T13:25:41.718Z,98775.91
2023-05-29T13:35:48.926Z,98765.55
2023-05-29T13:45:54.860Z,98755.23
2023-05-29T13:56:02.565Z,98749.09
2023-05-29T14:06:06.232Z,98748.29
2023-05-29T14:16:15.506Z,98743.44
2023-05-29T14:26:22.190Z,98737.80
2023-05-29T14:36:28.023Z,98728.14
2023-05-29T14:46:35.283Z,98720.13
2023-05-29T14:56:42.626Z,98711.98
2023-05-29T15:06:59.117Z,98715.33
2023-05-29T15:17:12.977Z,98706.34
2023-05-29T15:27:20.263Z,98699.94
2023-05-29T15:37:25.777Z,98697.69
2023-05-29T15:47:33.616Z,98698.45
2023-05-29T15:57:40.882Z,98708.02
2023-05-29T16:07:49.174Z,98711.15
2023-05-29T16:17:57.377Z,98716.98
2023-05-29T16:28:03.149Z,98721.77
2023-05-29T16:38:11.121Z,98724.91
2023-05-29T16:48:18.998Z,98725.48
2023-05-29T16:58:24.574Z,98725.86
2023-05-29T17:08:31.817Z,98725.80
2023-05-29T17:18:38.914Z,98726.45
2023-05-29T17:28:46.248Z,98729.16
2023-05-29T17:38:53.764Z,98729.94
2023-05-29T17:49:01.178Z,98732.14
2023-05-29T17:59:07.765Z,98733.90
2023-05-29T18:09:15.701Z,98739.71
2023-05-29T18:19:22.439Z,98745.46
2023-05-29T18:29:29.050Z,98745.69
2023-05-29T18:39:36.303Z,98749.69
2023-05-29T18:49:43.558Z,98763.15
2023-05-29T18:59:52.893Z,98768.92
2023-05-29T19:10:00.402Z,98778.39
2023-05-29T19:20:08.814Z,98779.32
2023-05-29T19:30:19.624Z,98790.96
2023-05-29T19:40:26.643Z,98798.41
2023-05-29T19:50:34.030Z,98806.63
2023-05-29T20:00:41.275Z,98822.77
2023-05-29T20:10:58.083Z,98845.08
2023-05-29T20:21:05.572Z,98844.39
2023-05-29T20:31:13.018Z,98845.73
2023-05-29T20:41:20.122Z,98846.98
2023-05-29T20:51:28.193Z,98848.46
2023-05-29T21:01:35.558Z,98846.97
2023-05-29T21:11:43.144Z,98854.92
2023-05-29T21:21:50.150Z,98860.42
2023-05-29T21:31:58.973Z,98852.80
2023-05-29T21:42:04.723Z,98845.90
2023-05-29T21:52:09.092Z,98846.93
2023-05-29T22:02:14.933Z,98846.53
2023-05-29T22:12:21.479Z,98840.23
2023-05-29T22:22:27.641Z,98844.48
2023-05-29T22:32:32.823Z,98843.06
2023-05-29T22:42:38.630Z,98844.71
2023-05-29T22:52:46.076Z,98845.16
2023-05-29T23:02:51.913Z,98846.42
2023-05-29T23:12:58.395Z,98841.01
2023-05-29T23:23:03.624Z,98838.70
2023-05-29T23:33:07.881Z,98838.48
2023-05-29T23:43:13.426Z,98834.07
2023-05-29T23:53:18.751Z,98827.89
